sensor_id;sensor_type;location;lat;lon;timestamp;temperature;humidity
71291;DHT22;59073;51.994;4.448;2024-02-21T00:00:44;10.66;85.12
71291;DHT22;59073;51.994;4.448;2024-02-21T00:03:09;10.63;85.30
71291;DHT22;59073;51.994;4.448;2024-02-21T00:05:34;10.72;84.90
71291;DHT22;59073;51.994;4.448;2024-02-21T00:08:00;10.80;84.46
71291;DHT22;59073;51.994;4.448;2024-02-21T00:10:25;10.75;84.53
71291;DHT22;59073;51.994;4.448;2024-02-21T00:12:51;10.84;84.28
71291;DHT22;59073;51.994;4.448;2024-02-21T00:15:17;10.82;84.28
71291;DHT22;59073;51.994;4.448;2024-02-21T00:17:44;10.77;84.55
71291;DHT22;59073;51.994;4.448;2024-02-21T00:20:10;10.83;84.49
71291;DHT22;59073;51.994;4.448;2024-02-21T00:22:36;10.82;84.50
71291;DHT22;59073;51.994;4.448;2024-02-21T00:25:01;10.79;84.59
71291;DHT22;59073;51.994;4.448;2024-02-21T00:27:27;10.89;84.09
71291;DHT22;59073;51.994;4.448;2024-02-21T00:29:53;10.86;84.19
71291;DHT22;59073;51.994;4.448;2024-02-21T00:32:18;10.92;84.14
71291;DHT22;59073;51.994;4.448;2024-02-21T00:34:44;10.86;84.05
71291;DHT22;59073;51.994;4.448;2024-02-21T00:37:09;10.80;84.21
71291;DHT22;59073;51.994;4.448;2024-02-21T00:39:34;10.89;84.32
71291;DHT22;59073;51.994;4.448;2024-02-21T00:42:01;10.84;84.05
71291;DHT22;59073;51.994;4.448;2024-02-21T00:44:26;10.88;84.17
71291;DHT22;59073;51.994;4.448;2024-02-21T00:46:51;10.83;84.23
71291;DHT22;59073;51.994;4.448;2024-02-21T00:49:18;10.88;84.27
71291;DHT22;59073;51.994;4.448;2024-02-21T00:51:43;10.92;84.11
71291;DHT22;59073;51.994;4.448;2024-02-21T00:54:09;10.89;84.19
71291;DHT22;59073;51.994;4.448;2024-02-21T00:56:34;10.95;84.05
71291;DHT22;59073;51.994;4.448;2024-02-21T00:59:00;10.99;84.02
71291;DHT22;59073;51.994;4.448;2024-02-21T01:01:25;10.97;83.97
71291;DHT22;59073;51.994;4.448;2024-02-21T01:03:51;10.99;84.00
71291;DHT22;59073;51.994;4.448;2024-02-21T01:06:19;11.00;83.88
71291;DHT22;59073;51.994;4.448;2024-02-21T01:08:48;11.10;83.71
71291;DHT22;59073;51.994;4.448;2024-02-21T01:11:14;11.04;83.75
71291;DHT22;59073;51.994;4.448;2024-02-21T01:13:40;11.06;83.59
71291;DHT22;59073;51.994;4.448;2024-02-21T01:16:06;11.11;83.62
71291;DHT22;59073;51.994;4.448;2024-02-21T01:18:37;11.17;83.41
71291;DHT22;59073;51.994;4.448;2024-02-21T01:21:03;11.07;83.50
71291;DHT22;59073;51.994;4.448;2024-02-21T01:23:35;11.06;83.55
71291;DHT22;59073;51.994;4.448;2024-02-21T01:26:02;11.04;83.49
71291;DHT22;59073;51.994;4.448;2024-02-21T01:28:27;11.03;83.44
71291;DHT22;59073;51.994;4.448;2024-02-21T01:30:53;11.13;83.34
71291;DHT22;59073;51.994;4.448;2024-02-21T01:33:18;11.10;83.23
71291;DHT22;59073;51.994;4.448;2024-02-21T01:35:44;11.19;83.05
71291;DHT22;59073;51.994;4.448;2024-02-21T01:38:12;11.17;83.12
71291;DHT22;59073;51.994;4.448;2024-02-21T01:40:37;11.13;83.13
71291;DHT22;59073;51.994;4.448;2024-02-21T01:43:03;11.11;82.82
71291;DHT22;59073;51.994;4.448;2024-02-21T01:45:28;11.07;83.18
71291;DHT22;59073;51.994;4.448;2024-02-21T01:47:54;10.97;83.61
71291;DHT22;59073;51.994;4.448;2024-02-21T01:50:22;11.14;83.26
71291;DHT22;59073;51.994;4.448;2024-02-21T01:52:49;11.09;83.29
71291;DHT22;59073;51.994;4.448;2024-02-21T01:55:16;11.11;83.20
71291;DHT22;59073;51.994;4.448;2024-02-21T01:57:42;11.21;82.86
71291;DHT22;59073;51.994;4.448;2024-02-21T02:00:13;11.21;82.93
71291;DHT22;59073;51.994;4.448;2024-02-21T02:02:40;11.14;83.09
71291;DHT22;59073;51.994;4.448;2024-02-21T02:05:07;11.13;83.03
71291;DHT22;59073;51.994;4.448;2024-02-21T02:07:33;11.16;83.04
71291;DHT22;59073;51.994;4.448;2024-02-21T02:09:58;11.13;83.13
71291;DHT22;59073;51.994;4.448;2024-02-21T02:12:24;11.13;82.83
71291;DHT22;59073;51.994;4.448;2024-02-21T02:15:03;11.13;82.94
71291;DHT22;59073;51.994;4.448;2024-02-21T02:17:32;11.13;83.11
71291;DHT22;59073;51.994;4.448;2024-02-21T02:19:57;11.11;83.07
71291;DHT22;59073;51.994;4.448;2024-02-21T02:22:28;11.11;83.00
71291;DHT22;59073;51.994;4.448;2024-02-21T02:24:54;11.10;83.25
71291;DHT22;59073;51.994;4.448;2024-02-21T02:27:20;11.13;83.17
71291;DHT22;59073;51.994;4.448;2024-02-21T02:29:45;11.09;82.90
71291;DHT22;59073;51.994;4.448;2024-02-21T02:32:12;11.04;83.37
71291;DHT22;59073;51.994;4.448;2024-02-21T02:34:37;11.09;83.04
71291;DHT22;59073;51.994;4.448;2024-02-21T02:37:03;11.01;82.86
71291;DHT22;59073;51.994;4.448;2024-02-21T02:39:28;11.01;83.26
71291;DHT22;59073;51.994;4.448;2024-02-21T02:41:54;11.03;83.18
71291;DHT22;59073;51.994;4.448;2024-02-21T02:44:19;11.06;83.14
71291;DHT22;59073;51.994;4.448;2024-02-21T02:46:44;11.06;82.83
71291;DHT22;59073;51.994;4.448;2024-02-21T02:49:10;11.04;82.91
71291;DHT22;59073;51.994;4.448;2024-02-21T02:51:35;11.06;82.78
71291;DHT22;59073;51.994;4.448;2024-02-21T02:54:02;11.03;82.80
71291;DHT22;59073;51.994;4.448;2024-02-21T02:56:27;11.06;83.01
71291;DHT22;59073;51.994;4.448;2024-02-21T02:58:53;11.10;82.77
71291;DHT22;59073;51.994;4.448;2024-02-21T03:01:18;10.97;83.10
71291;DHT22;59073;51.994;4.448;2024-02-21T03:03:43;11.01;83.11
71291;DHT22;59073;51.994;4.448;2024-02-21T03:06:11;10.97;83.11
71291;DHT22;59073;51.994;4.448;2024-02-21T03:08:36;11.03;83.07
71291;DHT22;59073;51.994;4.448;2024-02-21T03:11:01;11.00;82.87
71291;DHT22;59073;51.994;4.448;2024-02-21T03:13:27;10.99;83.14
71291;DHT22;59073;51.994;4.448;2024-02-21T03:15:52;10.97;83.46
71291;DHT22;59073;51.994;4.448;2024-02-21T03:18:18;11.06;82.63
71291;DHT22;59073;51.994;4.448;2024-02-21T03:20:43;11.06;82.83
71291;DHT22;59073;51.994;4.448;2024-02-21T03:23:09;11.07;82.79
71291;DHT22;59073;51.994;4.448;2024-02-21T03:25:34;11.00;82.94
71291;DHT22;59073;51.994;4.448;2024-02-21T03:27:59;10.96;83.14
71291;DHT22;59073;51.994;4.448;2024-02-21T03:30:25;10.96;83.02
71291;DHT22;59073;51.994;4.448;2024-02-21T03:32:51;10.96;83.12
71291;DHT22;59073;51.994;4.448;2024-02-21T03:35:16;10.99;83.07
71291;DHT22;59073;51.994;4.448;2024-02-21T03:37:42;10.96;82.92
71291;DHT22;59073;51.994;4.448;2024-02-21T03:40:08;11.00;82.89
71291;DHT22;59073;51.994;4.448;2024-02-21T03:42:34;10.97;82.98
71291;DHT22;59073;51.994;4.448;2024-02-21T03:44:59;11.01;82.75
71291;DHT22;59073;51.994;4.448;2024-02-21T03:47:25;11.07;82.71
71291;DHT22;59073;51.994;4.448;2024-02-21T03:49:50;11.16;82.63
71291;DHT22;59073;51.994;4.448;2024-02-21T03:52:16;11.20;82.39
71291;DHT22;59073;51.994;4.448;2024-02-21T03:54:42;11.17;82.41
71291;DHT22;59073;51.994;4.448;2024-02-21T03:57:08;11.16;82.06
71291;DHT22;59073;51.994;4.448;2024-02-21T03:59:33;10.96;82.72
71291;DHT22;59073;51.994;4.448;2024-02-21T04:01:59;10.89;83.15
71291;DHT22;59073;51.994;4.448;2024-02-21T04:04:25;10.79;83.38
71291;DHT22;59073;51.994;4.448;2024-02-21T04:06:51;11.03;83.00
71291;DHT22;59073;51.994;4.448;2024-02-21T04:09:17;11.04;82.89
71291;DHT22;59073;51.994;4.448;2024-02-21T04:11:43;11.09;82.73
71291;DHT22;59073;51.994;4.448;2024-02-21T04:14:09;11.06;82.41
71291;DHT22;59073;51.994;4.448;2024-02-21T04:16:36;10.90;82.81
71291;DHT22;59073;51.994;4.448;2024-02-21T04:19:02;10.77;83.61
71291;DHT22;59073;51.994;4.448;2024-02-21T04:21:27;10.70;83.80
71291;DHT22;59073;51.994;4.448;2024-02-21T04:23:53;10.76;83.73
71291;DHT22;59073;51.994;4.448;2024-02-21T04:26:18;10.79;83.70
71291;DHT22;59073;51.994;4.448;2024-02-21T04:28:45;10.73;83.43
71291;DHT22;59073;51.994;4.448;2024-02-21T04:31:11;10.69;84.24
71291;DHT22;59073;51.994;4.448;2024-02-21T04:33:36;10.66;84.01
71291;DHT22;59073;51.994;4.448;2024-02-21T04:36:02;10.65;83.68
71291;DHT22;59073;51.994;4.448;2024-02-21T04:38:27;10.55;84.11
71291;DHT22;59073;51.994;4.448;2024-02-21T04:40:55;10.55;84.30
71291;DHT22;59073;51.994;4.448;2024-02-21T04:43:20;10.55;84.13
71291;DHT22;59073;51.994;4.448;2024-02-21T04:45:46;10.46;84.43
71291;DHT22;59073;51.994;4.448;2024-02-21T04:48:11;10.41;84.60
71291;DHT22;59073;51.994;4.448;2024-02-21T04:50:37;10.50;84.66
71291;DHT22;59073;51.994;4.448;2024-02-21T04:53:02;10.46;84.56
71291;DHT22;59073;51.994;4.448;2024-02-21T04:55:28;10.45;84.61
71291;DHT22;59073;51.994;4.448;2024-02-21T04:57:53;10.45;84.93
71291;DHT22;59073;51.994;4.448;2024-02-21T05:00:19;10.49;84.46
71291;DHT22;59073;51.994;4.448;2024-02-21T05:02:45;10.45;84.42
71291;DHT22;59073;51.994;4.448;2024-02-21T05:05:10;10.44;84.51
71291;DHT22;59073;51.994;4.448;2024-02-21T05:07:35;10.42;84.69
71291;DHT22;59073;51.994;4.448;2024-02-21T05:10:01;10.49;84.57
71291;DHT22;59073;51.994;4.448;2024-02-21T05:12:26;10.39;84.62
71291;DHT22;59073;51.994;4.448;2024-02-21T05:14:52;10.37;84.61
71291;DHT22;59073;51.994;4.448;2024-02-21T05:17:17;10.32;84.84
71291;DHT22;59073;51.994;4.448;2024-02-21T05:19:43;10.27;85.02
71291;DHT22;59073;51.994;4.448;2024-02-21T05:22:08;10.28;85.29
71291;DHT22;59073;51.994;4.448;2024-02-21T05:24:33;10.27;85.15
71291;DHT22;59073;51.994;4.448;2024-02-21T05:26:59;10.28;85.13
71291;DHT22;59073;51.994;4.448;2024-02-21T05:29:24;10.34;85.06
71291;DHT22;59073;51.994;4.448;2024-02-21T05:34:19;10.34;84.86
71291;DHT22;59073;51.994;4.448;2024-02-21T05:36:44;10.34;84.80
71291;DHT22;59073;51.994;4.448;2024-02-21T05:39:11;10.32;84.93
71291;DHT22;59073;51.994;4.448;2024-02-21T05:41:37;10.32;84.95
71291;DHT22;59073;51.994;4.448;2024-02-21T05:44:03;10.31;85.12
71291;DHT22;59073;51.994;4.448;2024-02-21T05:46:28;10.29;85.05
71291;DHT22;59073;51.994;4.448;2024-02-21T05:48:53;10.20;85.05
71291;DHT22;59073;51.994;4.448;2024-02-21T05:51:19;10.24;85.02
71291;DHT22;59073;51.994;4.448;2024-02-21T05:53:45;10.20;85.46
71291;DHT22;59073;51.994;4.448;2024-02-21T05:56:14;10.32;84.88
71291;DHT22;59073;51.994;4.448;2024-02-21T05:58:40;10.24;84.94
71291;DHT22;59073;51.994;4.448;2024-02-21T06:01:06;10.21;85.31
71291;DHT22;59073;51.994;4.448;2024-02-21T06:03:33;10.28;84.89
71291;DHT22;59073;51.994;4.448;2024-02-21T06:05:59;10.08;85.38
71291;DHT22;59073;51.994;4.448;2024-02-21T06:08:24;10.22;85.29
71291;DHT22;59073;51.994;4.448;2024-02-21T06:10:50;10.15;85.18
71291;DHT22;59073;51.994;4.448;2024-02-21T06:13:28;10.18;84.90
71291;DHT22;59073;51.994;4.448;2024-02-21T06:15:54;10.14;85.10
71291;DHT22;59073;51.994;4.448;2024-02-21T06:18:20;10.12;85.31
71291;DHT22;59073;51.994;4.448;2024-02-21T06:20:46;10.15;85.37
71291;DHT22;59073;51.994;4.448;2024-02-21T06:23:13;10.18;85.13
71291;DHT22;59073;51.994;4.448;2024-02-21T06:25:38;10.20;85.35
71291;DHT22;59073;51.994;4.448;2024-02-21T06:28:05;10.11;85.47
71291;DHT22;59073;51.994;4.448;2024-02-21T06:30:30;10.21;85.18
71291;DHT22;59073;51.994;4.448;2024-02-21T06:32:56;10.14;85.34
71291;DHT22;59073;51.994;4.448;2024-02-21T06:35:22;10.12;85.22
71291;DHT22;59073;51.994;4.448;2024-02-21T06:37:51;10.11;85.38
71291;DHT22;59073;51.994;4.448;2024-02-21T06:40:18;10.07;85.79
71291;DHT22;59073;51.994;4.448;2024-02-21T06:42:43;10.18;85.25
71291;DHT22;59073;51.994;4.448;2024-02-21T06:45:09;10.18;85.17
71291;DHT22;59073;51.994;4.448;2024-02-21T06:47:34;10.11;85.31
71291;DHT22;59073;51.994;4.448;2024-02-21T06:50:00;10.14;85.37
71291;DHT22;59073;51.994;4.448;2024-02-21T06:52:25;10.10;85.40
71291;DHT22;59073;51.994;4.448;2024-02-21T06:54:51;10.01;85.63
71291;DHT22;59073;51.994;4.448;2024-02-21T06:57:16;10.10;85.41
71291;DHT22;59073;51.994;4.448;2024-02-21T06:59:42;10.05;85.59
71291;DHT22;59073;51.994;4.448;2024-02-21T07:02:08;10.10;85.42
71291;DHT22;59073;51.994;4.448;2024-02-21T07:04:33;10.11;85.34
71291;DHT22;59073;51.994;4.448;2024-02-21T07:06:59;10.20;85.05
71291;DHT22;59073;51.994;4.448;2024-02-21T07:09:24;10.04;85.29
71291;DHT22;59073;51.994;4.448;2024-02-21T07:11:50;10.04;85.26
71291;DHT22;59073;51.994;4.448;2024-02-21T07:14:15;10.05;85.27
71291;DHT22;59073;51.994;4.448;2024-02-21T07:16:41;10.17;85.13
71291;DHT22;59073;51.994;4.448;2024-02-21T07:19:07;10.14;84.90
71291;DHT22;59073;51.994;4.448;2024-02-21T07:21:32;10.10;85.06
71291;DHT22;59073;51.994;4.448;2024-02-21T07:23:58;10.17;85.01
71291;DHT22;59073;51.994;4.448;2024-02-21T07:26:24;10.25;85.00
71291;DHT22;59073;51.994;4.448;2024-02-21T07:28:49;10.21;84.84
71291;DHT22;59073;51.994;4.448;2024-02-21T07:31:15;10.20;84.89
71291;DHT22;59073;51.994;4.448;2024-02-21T07:33:40;10.22;84.90
71291;DHT22;59073;51.994;4.448;2024-02-21T07:36:11;10.22;85.02
71291;DHT22;59073;51.994;4.448;2024-02-21T07:38:36;10.15;84.95
71291;DHT22;59073;51.994;4.448;2024-02-21T07:41:02;10.17;85.13
71291;DHT22;59073;51.994;4.448;2024-02-21T07:43:29;10.18;85.11
71291;DHT22;59073;51.994;4.448;2024-02-21T07:45:55;10.18;84.96
71291;DHT22;59073;51.994;4.448;2024-02-21T07:48:21;10.10;85.10
71291;DHT22;59073;51.994;4.448;2024-02-21T07:50:51;10.08;85.46
71291;DHT22;59073;51.994;4.448;2024-02-21T07:53:16;10.12;85.35
71291;DHT22;59073;51.994;4.448;2024-02-21T07:55:42;10.12;85.26
71291;DHT22;59073;51.994;4.448;2024-02-21T07:58:07;10.08;85.54
71291;DHT22;59073;51.994;4.448;2024-02-21T08:00:33;10.05;85.57
71291;DHT22;59073;51.994;4.448;2024-02-21T08:02:59;10.04;85.59
71291;DHT22;59073;51.994;4.448;2024-02-21T08:05:24;10.08;85.50
71291;DHT22;59073;51.994;4.448;2024-02-21T08:07:50;10.05;85.57
71291;DHT22;59073;51.994;4.448;2024-02-21T08:10:15;10.04;85.35
71291;DHT22;59073;51.994;4.448;2024-02-21T08:12:41;10.07;85.27
71291;DHT22;59073;51.994;4.448;2024-02-21T08:15:06;10.02;85.29
71291;DHT22;59073;51.994;4.448;2024-02-21T08:17:36;10.10;85.45
71291;DHT22;59073;51.994;4.448;2024-02-21T08:20:03;10.01;85.20
71291;DHT22;59073;51.994;4.448;2024-02-21T08:22:29;9.97;85.55
71291;DHT22;59073;51.994;4.448;2024-02-21T08:24:55;9.97;85.67
71291;DHT22;59073;51.994;4.448;2024-02-21T08:27:21;9.98;85.62
71291;DHT22;59073;51.994;4.448;2024-02-21T08:29:46;9.97;85.46
71291;DHT22;59073;51.994;4.448;2024-02-21T08:32:12;10.00;85.62
71291;DHT22;59073;51.994;4.448;2024-02-21T08:34:37;10.05;85.47
71291;DHT22;59073;51.994;4.448;2024-02-21T08:37:03;10.05;85.19
71291;DHT22;59073;51.994;4.448;2024-02-21T08:39:29;10.02;85.13
71291;DHT22;59073;51.994;4.448;2024-02-21T08:41:56;9.98;85.39
71291;DHT22;59073;51.994;4.448;2024-02-21T08:44:23;9.98;85.25
71291;DHT22;59073;51.994;4.448;2024-02-21T08:46:51;10.01;85.14
71291;DHT22;59073;51.994;4.448;2024-02-21T08:49:17;9.97;85.18
71291;DHT22;59073;51.994;4.448;2024-02-21T08:51:43;9.97;85.22
71291;DHT22;59073;51.994;4.448;2024-02-21T08:54:09;10.07;85.22
71291;DHT22;59073;51.994;4.448;2024-02-21T08:56:34;10.04;84.97
71291;DHT22;59073;51.994;4.448;2024-02-21T08:59:01;10.07;84.92
71291;DHT22;59073;51.994;4.448;2024-02-21T09:01:27;10.11;84.83
71291;DHT22;59073;51.994;4.448;2024-02-21T09:03:52;10.14;84.71
71291;DHT22;59073;51.994;4.448;2024-02-21T09:06:19;10.14;84.75
71291;DHT22;59073;51.994;4.448;2024-02-21T09:08:48;10.22;84.44
71291;DHT22;59073;51.994;4.448;2024-02-21T09:11:13;10.22;84.75
71291;DHT22;59073;51.994;4.448;2024-02-21T09:13:39;10.32;84.38
71291;DHT22;59073;51.994;4.448;2024-02-21T09:16:04;10.39;84.13
71291;DHT22;59073;51.994;4.448;2024-02-21T09:18:31;10.45;84.00
71291;DHT22;59073;51.994;4.448;2024-02-21T09:20:56;10.41;83.85
71291;DHT22;59073;51.994;4.448;2024-02-21T09:23:24;10.39;83.84
71291;DHT22;59073;51.994;4.448;2024-02-21T09:25:50;10.44;83.77
71291;DHT22;59073;51.994;4.448;2024-02-21T09:28:15;10.46;83.45
71291;DHT22;59073;51.994;4.448;2024-02-21T09:30:41;10.49;83.29
71291;DHT22;59073;51.994;4.448;2024-02-21T09:33:07;10.48;83.33
71291;DHT22;59073;51.994;4.448;2024-02-21T09:35:33;10.50;83.36
71291;DHT22;59073;51.994;4.448;2024-02-21T09:37:59;10.49;83.37
71291;DHT22;59073;51.994;4.448;2024-02-21T09:40:25;10.56;83.13
71291;DHT22;59073;51.994;4.448;2024-02-21T09:43:04;10.55;83.21
71291;DHT22;59073;51.994;4.448;2024-02-21T09:45:33;10.63;82.88
71291;DHT22;59073;51.994;4.448;2024-02-21T09:50:54;10.58;82.69
71291;DHT22;59073;51.994;4.448;2024-02-21T09:53:24;10.59;82.36
71291;DHT22;59073;51.994;4.448;2024-02-21T09:55:50;10.70;82.58
71291;DHT22;59073;51.994;4.448;2024-02-21T09:58:16;10.69;82.16
71291;DHT22;59073;51.994;4.448;2024-02-21T10:00:42;10.69;81.90
71291;DHT22;59073;51.994;4.448;2024-02-21T10:03:07;10.60;81.92
71291;DHT22;59073;51.994;4.448;2024-02-21T10:05:37;10.66;82.16
71291;DHT22;59073;51.994;4.448;2024-02-21T10:08:04;10.75;82.35
71291;DHT22;59073;51.994;4.448;2024-02-21T10:10:40;10.75;81.96
71291;DHT22;59073;51.994;4.448;2024-02-21T10:13:06;10.76;81.91
71291;DHT22;59073;51.994;4.448;2024-02-21T10:15:33;10.77;81.78
71291;DHT22;59073;51.994;4.448;2024-02-21T10:18:01;10.79;81.56
71291;DHT22;59073;51.994;4.448;2024-02-21T10:20:29;10.77;81.70
71291;DHT22;59073;51.994;4.448;2024-02-21T10:25:36;10.73;81.44
71291;DHT22;59073;51.994;4.448;2024-02-21T10:28:13;10.76;81.61
71291;DHT22;59073;51.994;4.448;2024-02-21T10:30:50;10.68;81.66
71291;DHT22;59073;51.994;4.448;2024-02-21T10:33:16;10.65;81.68
71291;DHT22;59073;51.994;4.448;2024-02-21T10:35:41;10.59;81.88
71291;DHT22;59073;51.994;4.448;2024-02-21T10:38:07;10.60;82.18
71291;DHT22;59073;51.994;4.448;2024-02-21T10:40:33;10.66;82.41
71291;DHT22;59073;51.994;4.448;2024-02-21T10:43:00;10.70;82.08
71291;DHT22;59073;51.994;4.448;2024-02-21T10:45:36;10.58;82.13
71291;DHT22;59073;51.994;4.448;2024-02-21T10:48:14;10.65;82.36
71291;DHT22;59073;51.994;4.448;2024-02-21T10:51:08;10.68;82.08
71291;DHT22;59073;51.994;4.448;2024-02-21T10:56:28;10.55;81.96
71291;DHT22;59073;51.994;4.448;2024-02-21T10:58:54;10.65;82.19
71291;DHT22;59073;51.994;4.448;2024-02-21T11:01:24;10.77;81.76
71291;DHT22;59073;51.994;4.448;2024-02-21T11:03:54;10.83;81.51
71291;DHT22;59073;51.994;4.448;2024-02-21T11:06:21;10.88;81.48
71291;DHT22;59073;51.994;4.448;2024-02-21T11:08:47;10.90;80.86
71291;DHT22;59073;51.994;4.448;2024-02-21T11:11:14;10.90;80.86
71291;DHT22;59073;51.994;4.448;2024-02-21T11:13:43;10.80;80.73
71291;DHT22;59073;51.994;4.448;2024-02-21T11:16:10;10.88;80.81
71291;DHT22;59073;51.994;4.448;2024-02-21T11:18:38;11.00;80.87
71291;DHT22;59073;51.994;4.448;2024-02-21T11:21:04;11.04;80.41
71291;DHT22;59073;51.994;4.448;2024-02-21T11:23:31;11.24;80.46
71291;DHT22;59073;51.994;4.448;2024-02-21T11:26:09;11.32;79.98
71291;DHT22;59073;51.994;4.448;2024-02-21T11:28:35;11.54;79.75
71291;DHT22;59073;51.994;4.448;2024-02-21T11:31:13;11.55;79.42
71291;DHT22;59073;51.994;4.448;2024-02-21T11:33:42;11.68;78.32
71291;DHT22;59073;51.994;4.448;2024-02-21T11:36:09;11.72;78.96
71291;DHT22;59073;51.994;4.448;2024-02-21T11:38:36;11.71;78.62
71291;DHT22;59073;51.994;4.448;2024-02-21T11:41:02;11.52;78.70
71291;DHT22;59073;51.994;4.448;2024-02-21T11:43:27;11.48;79.10
71291;DHT22;59073;51.994;4.448;2024-02-21T11:46:01;11.50;78.45
71291;DHT22;59073;51.994;4.448;2024-02-21T11:48:26;11.31;79.34
71291;DHT22;59073;51.994;4.448;2024-02-21T11:50:56;11.30;79.80
71291;DHT22;59073;51.994;4.448;2024-02-21T11:53:22;11.23;79.65
71291;DHT22;59073;51.994;4.448;2024-02-21T11:55:47;11.28;79.90
71291;DHT22;59073;51.994;4.448;2024-02-21T11:58:13;11.30;79.62
71291;DHT22;59073;51.994;4.448;2024-02-21T12:00:38;11.23;79.61
71291;DHT22;59073;51.994;4.448;2024-02-21T12:03:05;11.32;79.60
71291;DHT22;59073;51.994;4.448;2024-02-21T12:05:32;11.26;79.34
71291;DHT22;59073;51.994;4.448;2024-02-21T12:07:57;11.20;79.84
71291;DHT22;59073;51.994;4.448;2024-02-21T12:10:25;11.19;79.64
71291;DHT22;59073;51.994;4.448;2024-02-21T12:12:51;11.17;79.93
71291;DHT22;59073;51.994;4.448;2024-02-21T12:15:18;11.11;80.09
71291;DHT22;59073;51.994;4.448;2024-02-21T12:17:44;10.96;80.39
71291;DHT22;59073;51.994;4.448;2024-02-21T12:20:09;10.99;80.61
71291;DHT22;59073;51.994;4.448;2024-02-21T12:22:41;11.03;80.47
71291;DHT22;59073;51.994;4.448;2024-02-21T12:25:17;11.00;80.61
71291;DHT22;59073;51.994;4.448;2024-02-21T12:27:47;10.99;80.44
71291;DHT22;59073;51.994;4.448;2024-02-21T12:30:14;10.93;80.85
71291;DHT22;59073;51.994;4.448;2024-02-21T12:32:40;10.88;81.40
71291;DHT22;59073;51.994;4.448;2024-02-21T12:35:07;10.92;80.85
71291;DHT22;59073;51.994;4.448;2024-02-21T12:37:32;10.88;81.08
71291;DHT22;59073;51.994;4.448;2024-02-21T12:39:59;10.73;81.04
71291;DHT22;59073;51.994;4.448;2024-02-21T12:42:25;10.77;81.22
71291;DHT22;59073;51.994;4.448;2024-02-21T12:44:51;10.77;81.30
71291;DHT22;59073;51.994;4.448;2024-02-21T12:47:18;10.68;81.21
71291;DHT22;59073;51.994;4.448;2024-02-21T12:49:45;10.65;81.48
71291;DHT22;59073;51.994;4.448;2024-02-21T12:52:11;10.68;81.38
71291;DHT22;59073;51.994;4.448;2024-02-21T12:54:36;10.63;81.64
71291;DHT22;59073;51.994;4.448;2024-02-21T12:57:02;10.59;81.76
71291;DHT22;59073;51.994;4.448;2024-02-21T12:59:29;10.55;81.80
71291;DHT22;59073;51.994;4.448;2024-02-21T13:01:54;10.58;81.97
71291;DHT22;59073;51.994;4.448;2024-02-21T13:04:20;10.63;81.72
71291;DHT22;59073;51.994;4.448;2024-02-21T13:06:48;10.68;81.43
71291;DHT22;59073;51.994;4.448;2024-02-21T13:09:14;10.60;82.01
71291;DHT22;59073;51.994;4.448;2024-02-21T13:11:40;10.53;82.22
71291;DHT22;59073;51.994;4.448;2024-02-21T13:14:06;10.52;81.99
71291;DHT22;59073;51.994;4.448;2024-02-21T13:16:32;10.52;81.93
71291;DHT22;59073;51.994;4.448;2024-02-21T13:18:59;10.56;81.88
71291;DHT22;59073;51.994;4.448;2024-02-21T13:21:25;10.53;82.06
71291;DHT22;59073;51.994;4.448;2024-02-21T13:23:51;10.49;82.11
71291;DHT22;59073;51.994;4.448;2024-02-21T13:26:16;10.56;82.31
71291;DHT22;59073;51.994;4.448;2024-02-21T13:28:42;10.55;81.98
71291;DHT22;59073;51.994;4.448;2024-02-21T13:31:10;10.58;81.94
71291;DHT22;59073;51.994;4.448;2024-02-21T13:33:35;10.48;82.04
71291;DHT22;59073;51.994;4.448;2024-02-21T13:36:01;10.46;81.98
71291;DHT22;59073;51.994;4.448;2024-02-21T13:38:28;10.46;81.88
71291;DHT22;59073;51.994;4.448;2024-02-21T13:40:54;10.44;81.84
71291;DHT22;59073;51.994;4.448;2024-02-21T13:43:19;10.55;82.36
71291;DHT22;59073;51.994;4.448;2024-02-21T13:45:59;10.53;82.06
71291;DHT22;59073;51.994;4.448;2024-02-21T13:48:25;10.56;82.72
71291;DHT22;59073;51.994;4.448;2024-02-21T13:50:50;10.46;82.82
71291;DHT22;59073;51.994;4.448;2024-02-21T13:53:16;10.53;83.61
71291;DHT22;59073;51.994;4.448;2024-02-21T13:55:46;10.48;83.54
71291;DHT22;59073;51.994;4.448;2024-02-21T13:58:12;10.46;83.94
71291;DHT22;59073;51.994;4.448;2024-02-21T14:00:38;10.44;84.04
71291;DHT22;59073;51.994;4.448;2024-02-21T14:03:03;10.44;84.00
71291;DHT22;59073;51.994;4.448;2024-02-21T14:05:29;10.37;84.07
71291;DHT22;59073;51.994;4.448;2024-02-21T14:07:55;10.46;84.60
71291;DHT22;59073;51.994;4.448;2024-02-21T14:10:21;10.28;84.53
71291;DHT22;59073;51.994;4.448;2024-02-21T14:12:47;10.21;84.63
71291;DHT22;59073;51.994;4.448;2024-02-21T14:15:13;10.18;84.84
71291;DHT22;59073;51.994;4.448;2024-02-21T14:17:39;10.15;85.08
71291;DHT22;59073;51.994;4.448;2024-02-21T14:20:06;10.11;85.45
71291;DHT22;59073;51.994;4.448;2024-02-21T14:22:32;10.11;85.80
71291;DHT22;59073;51.994;4.448;2024-02-21T14:24:58;10.11;85.96
71291;DHT22;59073;51.994;4.448;2024-02-21T14:27:23;10.17;86.00
71291;DHT22;59073;51.994;4.448;2024-02-21T14:29:49;10.18;85.87
71291;DHT22;59073;51.994;4.448;2024-02-21T14:32:14;10.11;86.16
71291;DHT22;59073;51.994;4.448;2024-02-21T14:34:40;10.01;86.20
71291;DHT22;59073;51.994;4.448;2024-02-21T14:37:05;9.98;86.59
71291;DHT22;59073;51.994;4.448;2024-02-21T14:39:31;9.94;86.74
71291;DHT22;59073;51.994;4.448;2024-02-21T14:41:58;9.93;87.01
71291;DHT22;59073;51.994;4.448;2024-02-21T14:44:25;9.91;87.18
71291;DHT22;59073;51.994;4.448;2024-02-21T14:46:51;9.93;87.45
71291;DHT22;59073;51.994;4.448;2024-02-21T14:49:16;9.94;87.56
71291;DHT22;59073;51.994;4.448;2024-02-21T14:51:42;9.83;87.40
71291;DHT22;59073;51.994;4.448;2024-02-21T14:54:07;9.87;87.86
71291;DHT22;59073;51.994;4.448;2024-02-21T14:56:33;9.84;87.67
71291;DHT22;59073;51.994;4.448;2024-02-21T14:58:59;9.84;87.84
71291;DHT22;59073;51.994;4.448;2024-02-21T15:01:24;9.77;88.19
71291;DHT22;59073;51.994;4.448;2024-02-21T15:03:50;9.84;88.51
71291;DHT22;59073;51.994;4.448;2024-02-21T15:06:16;9.84;88.58
71291;DHT22;59073;51.994;4.448;2024-02-21T15:08:42;9.86;88.88
71291;DHT22;59073;51.994;4.448;2024-02-21T15:11:08;9.80;88.75
71291;DHT22;59073;51.994;4.448;2024-02-21T15:13:33;9.86;88.69
71291;DHT22;59073;51.994;4.448;2024-02-21T15:15:59;9.83;89.03
71291;DHT22;59073;51.994;4.448;2024-02-21T15:18:24;9.83;89.18
71291;DHT22;59073;51.994;4.448;2024-02-21T15:20:50;9.84;89.19
71291;DHT22;59073;51.994;4.448;2024-02-21T15:23:15;9.87;89.13
71291;DHT22;59073;51.994;4.448;2024-02-21T15:25:42;9.90;88.94
71291;DHT22;59073;51.994;4.448;2024-02-21T15:28:09;9.91;89.03
71291;DHT22;59073;51.994;4.448;2024-02-21T15:30:35;9.90;89.18
71291;DHT22;59073;51.994;4.448;2024-02-21T15:33:01;9.88;89.26
71291;DHT22;59073;51.994;4.448;2024-02-21T15:35:30;9.88;89.12
71291;DHT22;59073;51.994;4.448;2024-02-21T15:37:56;9.95;89.05